Steele, Missouri
Current Conditions -  °F | °C
As of 3:53 PM on Monday 26 Jan 2015 (Local Time) from KHKA Reporting Station
Few Clouds Few Clouds  
Wind Chill: 39°   Ceiling: Unl
Heat Index: 45°   Visibility: 10mi
Dew Point: 34°   Wind: 14mph
Humidity: 65%   Direction: 220°SW
Pressure: 29.94"   Gusts: NA
Location:  36.08°N, 89.83°W
Report Text: KHKA 262153Z AUTO 22012KT 10SM FEW110 07/01 A2994 RMK AO2 SLP138 T00720011
Loading
Personal Weather Stations






























Interactive Weather Map New forecast layout! Learn more

10-Day Weather Forecast

Advertisements
Track Severe Weather on mobile